<?xml version="1.0" encoding="utf-8"?>
<gpx xmlns:xsi="http://www.w3.org/2001/XMLSchema-instance" xmlns:xsd="http://www.w3.org/2001/XMLSchema" version="1.1" creator="Shapelink.com" xmlns="http://www.topografix.com/GPX/1/1" xmlns:gpxtpx="http://www.garmin.com/xmlschemas/TrackPointExtension/v1">
  <metadata>
    <name>Löpning 5.32 km, 2019-08-31</name>
    <desc></desc>
    <author><name>Henrik Staffas</name></author> 
    <time>2019-08-31T11:00:21Z</time>
  </metadata>
  <trk>
    <name>Löpning 5.32 km, 2019-08-31</name>
    <trkseg>
      <trkpt lat="59.450834799745" lon="17.969399438573">
        <ele>24.4</ele>
        <time>2019-08-31T11:00:21Z</time>
      </trkpt>
      <trkpt lat="59.450816862479" lon="17.969451238715">
        <ele>25</ele>
        <time>2019-08-31T11:00:23Z</time>
      </trkpt>
      <trkpt lat="59.450800601593" lon="17.969502284486">
        <ele>25.8</ele>
        <time>2019-08-31T11:00:25Z</time>
      </trkpt>
      <trkpt lat="59.450766068165" lon="17.969617954706">
        <ele>27</ele>
        <time>2019-08-31T11:00:29Z</time>
      </trkpt>
      <trkpt lat="59.450740671008" lon="17.969723482827">
        <ele>28.2</ele>
        <time>2019-08-31T11:00:32Z</time>
      </trkpt>
      <trkpt lat="59.450689122323" lon="17.969899418908">
        <ele>29.4</ele>
        <time>2019-08-31T11:00:36Z</time>
      </trkpt>
      <trkpt lat="59.450671939428" lon="17.969980807157">
        <ele>30.6</ele>
        <time>2019-08-31T11:00:38Z</time>
      </trkpt>
      <trkpt lat="59.450656181456" lon="17.970052137126">
        <ele>31.6</ele>
        <time>2019-08-31T11:00:40Z</time>
      </trkpt>
      <trkpt lat="59.450631371032" lon="17.970184654965">
        <ele>32.4</ele>
        <time>2019-08-31T11:00:43Z</time>
      </trkpt>
      <trkpt lat="59.450625587521" lon="17.970207453733">
        <ele>32.6</ele>
        <time>2019-08-31T11:00:44Z</time>
      </trkpt>
      <trkpt lat="59.450567500954" lon="17.970452037575">
        <ele>33.2</ele>
        <time>2019-08-31T11:00:51Z</time>
      </trkpt>
      <trkpt lat="59.450513018604" lon="17.970528564322">
        <ele>33</ele>
        <time>2019-08-31T11:00:55Z</time>
      </trkpt>
      <trkpt lat="59.450417213487" lon="17.97067290064">
        <ele>31.6</ele>
        <time>2019-08-31T11:01:01Z</time>
      </trkpt>
      <trkpt lat="59.450400952601" lon="17.970709613362">
        <ele>31.6</ele>
        <time>2019-08-31T11:01:02Z</time>
      </trkpt>
      <trkpt lat="59.450387960656" lon="17.97074666136">
        <ele>31.4</ele>
        <time>2019-08-31T11:01:03Z</time>
      </trkpt>
      <trkpt lat="59.450250246039" lon="17.971034579625">
        <ele>31.2</ele>
        <time>2019-08-31T11:01:12Z</time>
      </trkpt>
      <trkpt lat="59.450159972976" lon="17.971448813123">
        <ele>31.8</ele>
        <time>2019-08-31T11:01:19Z</time>
      </trkpt>
      <trkpt lat="59.450118314933" lon="17.971641177728">
        <ele>32.6</ele>
        <time>2019-08-31T11:01:22Z</time>
      </trkpt>
      <trkpt lat="59.450042710195" lon="17.971944099594">
        <ele>33.2</ele>
        <time>2019-08-31T11:01:29Z</time>
      </trkpt>
      <trkpt lat="59.449974816805" lon="17.97228809277">
        <ele>32.4</ele>
        <time>2019-08-31T11:01:37Z</time>
      </trkpt>
      <trkpt lat="59.449890746348" lon="17.972615322146">
        <ele>32</ele>
        <time>2019-08-31T11:01:43Z</time>
      </trkpt>
      <trkpt lat="59.449853782169" lon="17.972794024254">
        <ele>31.6</ele>
        <time>2019-08-31T11:01:46Z</time>
      </trkpt>
      <trkpt lat="59.449783877123" lon="17.97316986865">
        <ele>31</ele>
        <time>2019-08-31T11:01:52Z</time>
      </trkpt>
      <trkpt lat="59.449718414484" lon="17.973564907597">
        <ele>30.6</ele>
        <time>2019-08-31T11:01:59Z</time>
      </trkpt>
      <trkpt lat="59.449712547154" lon="17.973628190942">
        <ele>30.6</ele>
        <time>2019-08-31T11:02:00Z</time>
      </trkpt>
      <trkpt lat="59.44969360406" lon="17.974015350903">
        <ele>30</ele>
        <time>2019-08-31T11:02:07Z</time>
      </trkpt>
      <trkpt lat="59.449681785581" lon="17.974413491153">
        <ele>30</ele>
        <time>2019-08-31T11:02:15Z</time>
      </trkpt>
      <trkpt lat="59.449631829457" lon="17.974698559572">
        <ele>29.6</ele>
        <time>2019-08-31T11:02:20Z</time>
      </trkpt>
      <trkpt lat="59.449577347107" lon="17.974952866418">
        <ele>28.6</ele>
        <time>2019-08-31T11:02:26Z</time>
      </trkpt>
      <trkpt lat="59.449557565823" lon="17.975060490014">
        <ele>28.4</ele>
        <time>2019-08-31T11:02:28Z</time>
      </trkpt>
      <trkpt lat="59.449502245283" lon="17.975414206194">
        <ele>28.2</ele>
        <time>2019-08-31T11:02:35Z</time>
      </trkpt>
      <trkpt lat="59.449450612779" lon="17.97578502145">
        <ele>27.8</ele>
        <time>2019-08-31T11:02:43Z</time>
      </trkpt>
      <trkpt lat="59.4494052667" lon="17.976151981032">
        <ele>27.8</ele>
        <time>2019-08-31T11:02:49Z</time>
      </trkpt>
      <trkpt lat="59.449386742701" lon="17.976426823533">
        <ele>27.8</ele>
        <time>2019-08-31T11:02:54Z</time>
      </trkpt>
      <trkpt lat="59.449388083805" lon="17.976472672526">
        <ele>27.4</ele>
        <time>2019-08-31T11:02:55Z</time>
      </trkpt>
      <trkpt lat="59.44939017928" lon="17.976646010218">
        <ele>27.4</ele>
        <time>2019-08-31T11:02:58Z</time>
      </trkpt>
      <trkpt lat="59.449397220076" lon="17.976803841395">
        <ele>27.2</ele>
        <time>2019-08-31T11:03:01Z</time>
      </trkpt>
      <trkpt lat="59.449376349145" lon="17.977172561176">
        <ele>27</ele>
        <time>2019-08-31T11:03:07Z</time>
      </trkpt>
      <trkpt lat="59.44934491702" lon="17.977524600976">
        <ele>28.4</ele>
        <time>2019-08-31T11:03:14Z</time>
      </trkpt>
      <trkpt lat="59.449338127681" lon="17.977558882947">
        <ele>28.6</ele>
        <time>2019-08-31T11:03:15Z</time>
      </trkpt>
      <trkpt lat="59.449257829079" lon="17.977879993536">
        <ele>27.8</ele>
        <time>2019-08-31T11:03:23Z</time>
      </trkpt>
      <trkpt lat="59.449238634528" lon="17.977918550276">
        <ele>27.4</ele>
        <time>2019-08-31T11:03:24Z</time>
      </trkpt>
      <trkpt lat="59.449175435002" lon="17.978015947954">
        <ele>26.2</ele>
        <time>2019-08-31T11:03:27Z</time>
      </trkpt>
      <trkpt lat="59.449004947156" lon="17.978177802443">
        <ele>25.6</ele>
        <time>2019-08-31T11:03:33Z</time>
      </trkpt>
      <trkpt lat="59.448938730146" lon="17.978272685551">
        <ele>25.2</ele>
        <time>2019-08-31T11:03:35Z</time>
      </trkpt>
      <trkpt lat="59.448753657794" lon="17.978542750369">
        <ele>24.4</ele>
        <time>2019-08-31T11:03:45Z</time>
      </trkpt>
      <trkpt lat="59.448737564546" lon="17.978573260485">
        <ele>24.2</ele>
        <time>2019-08-31T11:03:46Z</time>
      </trkpt>
      <trkpt lat="59.448721471298" lon="17.97860133985">
        <ele>24.2</ele>
        <time>2019-08-31T11:03:47Z</time>
      </trkpt>
      <trkpt lat="59.448695403589" lon="17.978652720897">
        <ele>24.2</ele>
        <time>2019-08-31T11:03:49Z</time>
      </trkpt>
      <trkpt lat="59.448542936828" lon="17.978986823431">
        <ele>23.8</ele>
        <time>2019-08-31T11:03:57Z</time>
      </trkpt>
      <trkpt lat="59.44836926386" lon="17.979170303222">
        <ele>25.2</ele>
        <time>2019-08-31T11:04:05Z</time>
      </trkpt>
      <trkpt lat="59.448186370802" lon="17.979298294835">
        <ele>25.4</ele>
        <time>2019-08-31T11:04:12Z</time>
      </trkpt>
      <trkpt lat="59.448047901814" lon="17.97934397619">
        <ele>24.2</ele>
        <time>2019-08-31T11:04:18Z</time>
      </trkpt>
      <trkpt lat="59.447951090869" lon="17.979399883463">
        <ele>23.2</ele>
        <time>2019-08-31T11:04:21Z</time>
      </trkpt>
      <trkpt lat="59.447694688548" lon="17.979475991115">
        <ele>22.8</ele>
        <time>2019-08-31T11:04:26Z</time>
      </trkpt>
      <trkpt lat="59.447506263436" lon="17.979526953067">
        <ele>22.6</ele>
        <time>2019-08-31T11:04:31Z</time>
      </trkpt>
      <trkpt lat="59.447429066137" lon="17.979579256123">
        <ele>22</ele>
        <time>2019-08-31T11:04:34Z</time>
      </trkpt>
      <trkpt lat="59.447252878599" lon="17.979485714119">
        <ele>22.6</ele>
        <time>2019-08-31T11:04:42Z</time>
      </trkpt>
      <trkpt lat="59.447180375164" lon="17.979455958374">
        <ele>23.2</ele>
        <time>2019-08-31T11:04:45Z</time>
      </trkpt>
      <trkpt lat="59.447083815676" lon="17.979456545107">
        <ele>24.2</ele>
        <time>2019-08-31T11:04:49Z</time>
      </trkpt>
      <trkpt lat="59.446983149057" lon="17.97945629365">
        <ele>25</ele>
        <time>2019-08-31T11:04:53Z</time>
      </trkpt>
      <trkpt lat="59.446966217619" lon="17.979462580075">
        <ele>25.4</ele>
        <time>2019-08-31T11:04:54Z</time>
      </trkpt>
      <trkpt lat="59.446886589569" lon="17.979459562591">
        <ele>26.4</ele>
        <time>2019-08-31T11:04:58Z</time>
      </trkpt>
      <trkpt lat="59.446778714516" lon="17.979543968324">
        <ele>26.4</ele>
        <time>2019-08-31T11:05:04Z</time>
      </trkpt>
      <trkpt lat="59.446612333801" lon="17.979801711749">
        <ele>27</ele>
        <time>2019-08-31T11:05:13Z</time>
      </trkpt>
      <trkpt lat="59.446547793171" lon="17.97991059263">
        <ele>27</ele>
        <time>2019-08-31T11:05:16Z</time>
      </trkpt>
      <trkpt lat="59.446428686372" lon="17.980206557519">
        <ele>27.2</ele>
        <time>2019-08-31T11:05:22Z</time>
      </trkpt>
      <trkpt lat="59.446379149343" lon="17.980317701513">
        <ele>27.2</ele>
        <time>2019-08-31T11:05:26Z</time>
      </trkpt>
      <trkpt lat="59.446355344747" lon="17.980360533022">
        <ele>27.4</ele>
        <time>2019-08-31T11:05:27Z</time>
      </trkpt>
      <trkpt lat="59.446321733328" lon="17.980398586848">
        <ele>27.6</ele>
        <time>2019-08-31T11:05:29Z</time>
      </trkpt>
      <trkpt lat="59.446255181042" lon="17.980444687298">
        <ele>28.6</ele>
        <time>2019-08-31T11:05:32Z</time>
      </trkpt>
      <trkpt lat="59.446224670926" lon="17.980462876021">
        <ele>28.6</ele>
        <time>2019-08-31T11:05:33Z</time>
      </trkpt>
      <trkpt lat="59.446010764838" lon="17.980500259295">
        <ele>28.8</ele>
        <time>2019-08-31T11:05:41Z</time>
      </trkpt>
      <trkpt lat="59.445806330297" lon="17.980484920418">
        <ele>29.2</ele>
        <time>2019-08-31T11:05:49Z</time>
      </trkpt>
      <trkpt lat="59.445775736362" lon="17.980504366426">
        <ele>29.6</ele>
        <time>2019-08-31T11:05:50Z</time>
      </trkpt>
      <trkpt lat="59.445724942048" lon="17.980522052235">
        <ele>30.2</ele>
        <time>2019-08-31T11:05:52Z</time>
      </trkpt>
      <trkpt lat="59.445651768061" lon="17.980528422479">
        <ele>30.6</ele>
        <time>2019-08-31T11:05:55Z</time>
      </trkpt>
      <trkpt lat="59.44551690329" lon="17.98052163314">
        <ele>31.6</ele>
        <time>2019-08-31T11:06:01Z</time>
      </trkpt>
      <trkpt lat="59.445502067327" lon="17.980520208217">
        <ele>31.8</ele>
        <time>2019-08-31T11:06:02Z</time>
      </trkpt>
      <trkpt lat="59.445455966877" lon="17.980517693647">
        <ele>32.2</ele>
        <time>2019-08-31T11:06:04Z</time>
      </trkpt>
      <trkpt lat="59.445396706844" lon="17.980499337286">
        <ele>32.8</ele>
        <time>2019-08-31T11:06:07Z</time>
      </trkpt>
      <trkpt lat="59.445191015018" lon="17.98045457794">
        <ele>34.4</ele>
        <time>2019-08-31T11:06:17Z</time>
      </trkpt>
      <trkpt lat="59.445152123002" lon="17.980428761688">
        <ele>35</ele>
        <time>2019-08-31T11:06:20Z</time>
      </trkpt>
      <trkpt lat="59.444961853872" lon="17.980298590781">
        <ele>35.4</ele>
        <time>2019-08-31T11:06:26Z</time>
      </trkpt>
      <trkpt lat="59.444819193934" lon="17.980167414046">
        <ele>36.4</ele>
        <time>2019-08-31T11:06:31Z</time>
      </trkpt>
      <trkpt lat="59.444642168206" lon="17.980044116297">
        <ele>36.8</ele>
        <time>2019-08-31T11:06:38Z</time>
      </trkpt>
      <trkpt lat="59.444478302061" lon="17.979849656217">
        <ele>36.4</ele>
        <time>2019-08-31T11:06:44Z</time>
      </trkpt>
      <trkpt lat="59.444299348496" lon="17.979813194952">
        <ele>36.8</ele>
        <time>2019-08-31T11:06:51Z</time>
      </trkpt>
      <trkpt lat="59.444119137646" lon="17.979759466973">
        <ele>37</ele>
        <time>2019-08-31T11:06:58Z</time>
      </trkpt>
      <trkpt lat="59.444031379153" lon="17.979721245509">
        <ele>37.4</ele>
        <time>2019-08-31T11:07:02Z</time>
      </trkpt>
      <trkpt lat="59.443861729497" lon="17.979503483747">
        <ele>38.2</ele>
        <time>2019-08-31T11:07:10Z</time>
      </trkpt>
      <trkpt lat="59.443682608294" lon="17.979364176569">
        <ele>37.8</ele>
        <time>2019-08-31T11:07:16Z</time>
      </trkpt>
      <trkpt lat="59.443636340206" lon="17.979337941222">
        <ele>38</ele>
        <time>2019-08-31T11:07:18Z</time>
      </trkpt>
      <trkpt lat="59.443539864537" lon="17.97935822542">
        <ele>38.4</ele>
        <time>2019-08-31T11:07:21Z</time>
      </trkpt>
      <trkpt lat="59.443449423836" lon="17.979344730561">
        <ele>39.2</ele>
        <time>2019-08-31T11:07:24Z</time>
      </trkpt>
      <trkpt lat="59.443436348072" lon="17.979370630632">
        <ele>39.8</ele>
        <time>2019-08-31T11:07:25Z</time>
      </trkpt>
      <trkpt lat="59.443414471313" lon="17.979385969509">
        <ele>40</ele>
        <time>2019-08-31T11:07:26Z</time>
      </trkpt>
      <trkpt lat="59.443382703912" lon="17.979414300331">
        <ele>40.8</ele>
        <time>2019-08-31T11:07:29Z</time>
      </trkpt>
      <trkpt lat="59.443330317037" lon="17.979482109902">
        <ele>41.6</ele>
        <time>2019-08-31T11:07:32Z</time>
      </trkpt>
      <trkpt lat="59.443308440278" lon="17.979508093792">
        <ele>42</ele>
        <time>2019-08-31T11:07:33Z</time>
      </trkpt>
      <trkpt lat="59.443248677331" lon="17.979603228357">
        <ele>43.2</ele>
        <time>2019-08-31T11:07:37Z</time>
      </trkpt>
      <trkpt lat="59.443206097279" lon="17.979657040155">
        <ele>43.2</ele>
        <time>2019-08-31T11:07:40Z</time>
      </trkpt>
      <trkpt lat="59.443096294389" lon="17.979883854369">
        <ele>42.4</ele>
        <time>2019-08-31T11:07:46Z</time>
      </trkpt>
      <trkpt lat="59.443070813413" lon="17.979966332265">
        <ele>42.2</ele>
        <time>2019-08-31T11:07:49Z</time>
      </trkpt>
      <trkpt lat="59.443015828149" lon="17.980095078249">
        <ele>41.2</ele>
        <time>2019-08-31T11:07:53Z</time>
      </trkpt>
      <trkpt lat="59.442845172665" lon="17.980442256547">
        <ele>40.4</ele>
        <time>2019-08-31T11:07:58Z</time>
      </trkpt>
      <trkpt lat="59.442849279796" lon="17.980598495163">
        <ele>40.2</ele>
        <time>2019-08-31T11:08:01Z</time>
      </trkpt>
      <trkpt lat="59.442787505193" lon="17.980761523118">
        <ele>39.4</ele>
        <time>2019-08-31T11:08:05Z</time>
      </trkpt>
      <trkpt lat="59.442750121919" lon="17.980850622715">
        <ele>39</ele>
        <time>2019-08-31T11:08:07Z</time>
      </trkpt>
      <trkpt lat="59.442632020948" lon="17.981160082463">
        <ele>38.2</ele>
        <time>2019-08-31T11:08:13Z</time>
      </trkpt>
      <trkpt lat="59.442593631846" lon="17.981277931977">
        <ele>38</ele>
        <time>2019-08-31T11:08:15Z</time>
      </trkpt>
      <trkpt lat="59.442429514244" lon="17.981501644888">
        <ele>37</ele>
        <time>2019-08-31T11:08:21Z</time>
      </trkpt>
      <trkpt lat="59.442365141252" lon="17.981578003997">
        <ele>37</ele>
        <time>2019-08-31T11:08:23Z</time>
      </trkpt>
      <trkpt lat="59.442204041134" lon="17.981701469384">
        <ele>35.6</ele>
        <time>2019-08-31T11:08:29Z</time>
      </trkpt>
      <trkpt lat="59.442133884631" lon="17.981767351118">
        <ele>34.4</ele>
        <time>2019-08-31T11:08:32Z</time>
      </trkpt>
      <trkpt lat="59.442041180817" lon="17.981877154008">
        <ele>33</ele>
        <time>2019-08-31T11:08:36Z</time>
      </trkpt>
      <trkpt lat="59.441929701547" lon="17.982038086488">
        <ele>31.8</ele>
        <time>2019-08-31T11:08:40Z</time>
      </trkpt>
      <trkpt lat="59.441800033554" lon="17.982299266492">
        <ele>31</ele>
        <time>2019-08-31T11:08:47Z</time>
      </trkpt>
      <trkpt lat="59.441740354426" lon="17.982465479569">
        <ele>31</ele>
        <time>2019-08-31T11:08:52Z</time>
      </trkpt>
      <trkpt lat="59.441680759117" lon="17.982589866965">
        <ele>31</ele>
        <time>2019-08-31T11:08:56Z</time>
      </trkpt>
      <trkpt lat="59.441664917326" lon="17.982612079">
        <ele>30.8</ele>
        <time>2019-08-31T11:08:57Z</time>
      </trkpt>
      <trkpt lat="59.441516138601" lon="17.982842245974">
        <ele>30.4</ele>
        <time>2019-08-31T11:09:05Z</time>
      </trkpt>
      <trkpt lat="59.441348752058" lon="17.983053972768">
        <ele>29.6</ele>
        <time>2019-08-31T11:09:12Z</time>
      </trkpt>
      <trkpt lat="59.44120860669" lon="17.983336945712">
        <ele>29</ele>
        <time>2019-08-31T11:09:17Z</time>
      </trkpt>
      <trkpt lat="59.441054547368" lon="17.98356677741">
        <ele>28.8</ele>
        <time>2019-08-31T11:09:23Z</time>
      </trkpt>
      <trkpt lat="59.440907277385" lon="17.9837771631">
        <ele>28.8</ele>
        <time>2019-08-31T11:09:29Z</time>
      </trkpt>
      <trkpt lat="59.440810969354" lon="17.983856036779">
        <ele>28.6</ele>
        <time>2019-08-31T11:09:33Z</time>
      </trkpt>
      <trkpt lat="59.440651545616" lon="17.984071535428">
        <ele>28.8</ele>
        <time>2019-08-31T11:09:41Z</time>
      </trkpt>
      <trkpt lat="59.440578790724" lon="17.984169268382">
        <ele>29.6</ele>
        <time>2019-08-31T11:09:45Z</time>
      </trkpt>
      <trkpt lat="59.440557752155" lon="17.984210172054">
        <ele>29.8</ele>
        <time>2019-08-31T11:09:46Z</time>
      </trkpt>
      <trkpt lat="59.440528918419" lon="17.984244118749">
        <ele>30</ele>
        <time>2019-08-31T11:09:48Z</time>
      </trkpt>
      <trkpt lat="59.440337392004" lon="17.984485349831">
        <ele>28.8</ele>
        <time>2019-08-31T11:09:56Z</time>
      </trkpt>
      <trkpt lat="59.440284334577" lon="17.98460613301">
        <ele>27.4</ele>
        <time>2019-08-31T11:09:59Z</time>
      </trkpt>
      <trkpt lat="59.440242341258" lon="17.984711996407">
        <ele>26.2</ele>
        <time>2019-08-31T11:10:01Z</time>
      </trkpt>
      <trkpt lat="59.440168496719" lon="17.984880891692">
        <ele>25.2</ele>
        <time>2019-08-31T11:10:04Z</time>
      </trkpt>
      <trkpt lat="59.440036397975" lon="17.985138216022">
        <ele>24.4</ele>
        <time>2019-08-31T11:10:09Z</time>
      </trkpt>
      <trkpt lat="59.439959284495" lon="17.98524148103">
        <ele>24.2</ele>
        <time>2019-08-31T11:10:12Z</time>
      </trkpt>
      <trkpt lat="59.43980631482" lon="17.985449603607">
        <ele>23.6</ele>
        <time>2019-08-31T11:10:17Z</time>
      </trkpt>
      <trkpt lat="59.439724339838" lon="17.985608943526">
        <ele>23</ele>
        <time>2019-08-31T11:10:20Z</time>
      </trkpt>
      <trkpt lat="59.439609088713" lon="17.985757303156">
        <ele>22</ele>
        <time>2019-08-31T11:10:25Z</time>
      </trkpt>
      <trkpt lat="59.439485036593" lon="17.986091573328">
        <ele>21.8</ele>
        <time>2019-08-31T11:10:32Z</time>
      </trkpt>
      <trkpt lat="59.439480594186" lon="17.986120239426">
        <ele>21.8</ele>
        <time>2019-08-31T11:10:33Z</time>
      </trkpt>
      <trkpt lat="59.439465255309" lon="17.986196263259">
        <ele>22.2</ele>
        <time>2019-08-31T11:10:35Z</time>
      </trkpt>
      <trkpt lat="59.439447737138" lon="17.986290391996">
        <ele>23</ele>
        <time>2019-08-31T11:10:38Z</time>
      </trkpt>
      <trkpt lat="59.439432062985" lon="17.986439925092">
        <ele>24.2</ele>
        <time>2019-08-31T11:10:42Z</time>
      </trkpt>
      <trkpt lat="59.439407923113" lon="17.9866186272">
        <ele>25.6</ele>
        <time>2019-08-31T11:10:46Z</time>
      </trkpt>
      <trkpt lat="59.439401552869" lon="17.986771764513">
        <ele>26.6</ele>
        <time>2019-08-31T11:10:50Z</time>
      </trkpt>
      <trkpt lat="59.439410605321" lon="17.987169737125">
        <ele>26</ele>
        <time>2019-08-31T11:10:59Z</time>
      </trkpt>
      <trkpt lat="59.439413958081" lon="17.987216843403">
        <ele>25.6</ele>
        <time>2019-08-31T11:11:00Z</time>
      </trkpt>
      <trkpt lat="59.439451425174" lon="17.987534349775">
        <ele>24.4</ele>
        <time>2019-08-31T11:11:06Z</time>
      </trkpt>
      <trkpt lat="59.439511774854" lon="17.98784154641">
        <ele>23.2</ele>
        <time>2019-08-31T11:11:13Z</time>
      </trkpt>
      <trkpt lat="59.439583943013" lon="17.988180761903">
        <ele>22.6</ele>
        <time>2019-08-31T11:11:19Z</time>
      </trkpt>
      <trkpt lat="59.439650579118" lon="17.988578985972">
        <ele>22.2</ele>
        <time>2019-08-31T11:11:25Z</time>
      </trkpt>
      <trkpt lat="59.439662313778" lon="17.988634977064">
        <ele>22.2</ele>
        <time>2019-08-31T11:11:26Z</time>
      </trkpt>
      <trkpt lat="59.439710844979" lon="17.989074104805">
        <ele>21.6</ele>
        <time>2019-08-31T11:11:32Z</time>
      </trkpt>
      <trkpt lat="59.439750407547" lon="17.989375098834">
        <ele>21</ele>
        <time>2019-08-31T11:11:36Z</time>
      </trkpt>
      <trkpt lat="59.439825425552" lon="17.989739627665">
        <ele>20.8</ele>
        <time>2019-08-31T11:11:43Z</time>
      </trkpt>
      <trkpt lat="59.439888205983" lon="17.990130810938">
        <ele>20.8</ele>
        <time>2019-08-31T11:11:50Z</time>
      </trkpt>
      <trkpt lat="59.439903125765" lon="17.990510511008">
        <ele>21.6</ele>
        <time>2019-08-31T11:11:58Z</time>
      </trkpt>
      <trkpt lat="59.439884769404" lon="17.990891468363">
        <ele>21.6</ele>
        <time>2019-08-31T11:12:05Z</time>
      </trkpt>
      <trkpt lat="59.439896420245" lon="17.991257422117">
        <ele>22.2</ele>
        <time>2019-08-31T11:12:14Z</time>
      </trkpt>
      <trkpt lat="59.439937575374" lon="17.991617424722">
        <ele>21.6</ele>
        <time>2019-08-31T11:12:22Z</time>
      </trkpt>
      <trkpt lat="59.43994713074" lon="17.991972482006">
        <ele>21.6</ele>
        <time>2019-08-31T11:12:30Z</time>
      </trkpt>
      <trkpt lat="59.439965151825" lon="17.992321169046">
        <ele>22.2</ele>
        <time>2019-08-31T11:12:40Z</time>
      </trkpt>
      <trkpt lat="59.439972946992" lon="17.992334999181">
        <ele>22.6</ele>
        <time>2019-08-31T11:12:41Z</time>
      </trkpt>
      <trkpt lat="59.43999406938" lon="17.992369616428">
        <ele>23.2</ele>
        <time>2019-08-31T11:12:43Z</time>
      </trkpt>
      <trkpt lat="59.44004436078" lon="17.992422422398">
        <ele>24.4</ele>
        <time>2019-08-31T11:12:47Z</time>
      </trkpt>
      <trkpt lat="59.440083923348" lon="17.992453016333">
        <ele>24.8</ele>
        <time>2019-08-31T11:12:50Z</time>
      </trkpt>
      <trkpt lat="59.440123653554" lon="17.992472462341">
        <ele>24.8</ele>
        <time>2019-08-31T11:12:54Z</time>
      </trkpt>
      <trkpt lat="59.440310150829" lon="17.992656193589">
        <ele>24.8</ele>
        <time>2019-08-31T11:13:03Z</time>
      </trkpt>
      <trkpt lat="59.440415343674" lon="17.992715537441">
        <ele>25</ele>
        <time>2019-08-31T11:13:07Z</time>
      </trkpt>
      <trkpt lat="59.440563116571" lon="17.992835650068">
        <ele>25.6</ele>
        <time>2019-08-31T11:13:14Z</time>
      </trkpt>
      <trkpt lat="59.440735699892" lon="17.99302826613">
        <ele>25.2</ele>
        <time>2019-08-31T11:13:24Z</time>
      </trkpt>
      <trkpt lat="59.440787164758" lon="17.99308191029">
        <ele>24.8</ele>
        <time>2019-08-31T11:13:27Z</time>
      </trkpt>
      <trkpt lat="59.440826978783" lon="17.993138655753">
        <ele>24.4</ele>
        <time>2019-08-31T11:13:29Z</time>
      </trkpt>
      <trkpt lat="59.440846760067" lon="17.993200262718">
        <ele>23.8</ele>
        <time>2019-08-31T11:13:31Z</time>
      </trkpt>
      <trkpt lat="59.440890513585" lon="17.99326882666">
        <ele>23</ele>
        <time>2019-08-31T11:13:33Z</time>
      </trkpt>
      <trkpt lat="59.4409227839" lon="17.993351136918">
        <ele>21.8</ele>
        <time>2019-08-31T11:13:36Z</time>
      </trkpt>
      <trkpt lat="59.441016577361" lon="17.993469405527">
        <ele>20.6</ele>
        <time>2019-08-31T11:13:40Z</time>
      </trkpt>
      <trkpt lat="59.441190669424" lon="17.993606533411">
        <ele>19.2</ele>
        <time>2019-08-31T11:13:46Z</time>
      </trkpt>
      <trkpt lat="59.441374233034" lon="17.993717677405">
        <ele>19</ele>
        <time>2019-08-31T11:13:52Z</time>
      </trkpt>
      <trkpt lat="59.441490489987" lon="17.993771489203">
        <ele>20.6</ele>
        <time>2019-08-31T11:13:58Z</time>
      </trkpt>
      <trkpt lat="59.441539105007" lon="17.993763777855">
        <ele>20.6</ele>
        <time>2019-08-31T11:14:02Z</time>
      </trkpt>
      <trkpt lat="59.441581098326" lon="17.99381951749">
        <ele>21.6</ele>
        <time>2019-08-31T11:14:06Z</time>
      </trkpt>
      <trkpt lat="59.441755777122" lon="17.993982713083">
        <ele>21.8</ele>
        <time>2019-08-31T11:14:17Z</time>
      </trkpt>
      <trkpt lat="59.441900700173" lon="17.993996291761">
        <ele>20.2</ele>
        <time>2019-08-31T11:14:22Z</time>
      </trkpt>
      <trkpt lat="59.442022740637" lon="17.994013223199">
        <ele>19</ele>
        <time>2019-08-31T11:14:25Z</time>
      </trkpt>
      <trkpt lat="59.442218122726" lon="17.994009367525">
        <ele>18.6</ele>
        <time>2019-08-31T11:14:28Z</time>
      </trkpt>
      <trkpt lat="59.442350808203" lon="17.993962764161">
        <ele>17.8</ele>
        <time>2019-08-31T11:14:31Z</time>
      </trkpt>
      <trkpt lat="59.442517105099" lon="17.993867461958">
        <ele>16.8</ele>
        <time>2019-08-31T11:14:36Z</time>
      </trkpt>
      <trkpt lat="59.442708882971" lon="17.993738548336">
        <ele>17.4</ele>
        <time>2019-08-31T11:14:43Z</time>
      </trkpt>
      <trkpt lat="59.442729753902" lon="17.993729747341">
        <ele>17.8</ele>
        <time>2019-08-31T11:14:44Z</time>
      </trkpt>
      <trkpt lat="59.442909545657" lon="17.993532437415">
        <ele>18.6</ele>
        <time>2019-08-31T11:14:51Z</time>
      </trkpt>
      <trkpt lat="59.443088247765" lon="17.993443086361">
        <ele>18</ele>
        <time>2019-08-31T11:14:58Z</time>
      </trkpt>
      <trkpt lat="59.443200229949" lon="17.993399249024">
        <ele>16.4</ele>
        <time>2019-08-31T11:15:02Z</time>
      </trkpt>
      <trkpt lat="59.443345823552" lon="17.993359854094">
        <ele>15.2</ele>
        <time>2019-08-31T11:15:07Z</time>
      </trkpt>
      <trkpt lat="59.443530309171" lon="17.993156090105">
        <ele>14.2</ele>
        <time>2019-08-31T11:15:14Z</time>
      </trkpt>
      <trkpt lat="59.443684033217" lon="17.992955427419">
        <ele>14</ele>
        <time>2019-08-31T11:15:19Z</time>
      </trkpt>
      <trkpt lat="59.443842032032" lon="17.992743030073">
        <ele>14.6</ele>
        <time>2019-08-31T11:15:25Z</time>
      </trkpt>
      <trkpt lat="59.443930796353" lon="17.992602968524">
        <ele>15.4</ele>
        <time>2019-08-31T11:15:29Z</time>
      </trkpt>
      <trkpt lat="59.444057195405" lon="17.992400797096">
        <ele>16.6</ele>
        <time>2019-08-31T11:15:35Z</time>
      </trkpt>
      <trkpt lat="59.4441330516" lon="17.992226621214">
        <ele>17.6</ele>
        <time>2019-08-31T11:15:40Z</time>
      </trkpt>
      <trkpt lat="59.444242100119" lon="17.991949180324">
        <ele>18.8</ele>
        <time>2019-08-31T11:15:47Z</time>
      </trkpt>
      <trkpt lat="59.444286775646" lon="17.991834515932">
        <ele>20</ele>
        <time>2019-08-31T11:15:50Z</time>
      </trkpt>
      <trkpt lat="59.44435601014" lon="17.991674840737">
        <ele>21</ele>
        <time>2019-08-31T11:15:56Z</time>
      </trkpt>
      <trkpt lat="59.444364811135" lon="17.991615496885">
        <ele>21.4</ele>
        <time>2019-08-31T11:15:58Z</time>
      </trkpt>
      <trkpt lat="59.44441468344" lon="17.991567133322">
        <ele>22.2</ele>
        <time>2019-08-31T11:16:02Z</time>
      </trkpt>
      <trkpt lat="59.444604533475" lon="17.99149018748">
        <ele>22</ele>
        <time>2019-08-31T11:16:13Z</time>
      </trkpt>
      <trkpt lat="59.444789438189" lon="17.991514662628">
        <ele>22.8</ele>
        <time>2019-08-31T11:16:20Z</time>
      </trkpt>
      <trkpt lat="59.44488658441" lon="17.991528828039">
        <ele>23.4</ele>
        <time>2019-08-31T11:16:24Z</time>
      </trkpt>
      <trkpt lat="59.444998231318" lon="17.99152371508">
        <ele>24.8</ele>
        <time>2019-08-31T11:16:30Z</time>
      </trkpt>
      <trkpt lat="59.445040140818" lon="17.991526900202">
        <ele>26</ele>
        <time>2019-08-31T11:16:33Z</time>
      </trkpt>
      <trkpt lat="59.445087917648" lon="17.99152120051">
        <ele>27</ele>
        <time>2019-08-31T11:16:36Z</time>
      </trkpt>
      <trkpt lat="59.445179783272" lon="17.991541400889">
        <ele>28</ele>
        <time>2019-08-31T11:16:40Z</time>
      </trkpt>
      <trkpt lat="59.445252789621" lon="17.991649359761">
        <ele>29.2</ele>
        <time>2019-08-31T11:16:44Z</time>
      </trkpt>
      <trkpt lat="59.445297548967" lon="17.991746003068">
        <ele>30.2</ele>
        <time>2019-08-31T11:16:47Z</time>
      </trkpt>
      <trkpt lat="59.445364436529" lon="17.992089828606">
        <ele>31</ele>
        <time>2019-08-31T11:16:55Z</time>
      </trkpt>
      <trkpt lat="59.445464264958" lon="17.992149340096">
        <ele>31.2</ele>
        <time>2019-08-31T11:17:00Z</time>
      </trkpt>
      <trkpt lat="59.445565853586" lon="17.992191417234">
        <ele>32.4</ele>
        <time>2019-08-31T11:17:05Z</time>
      </trkpt>
      <trkpt lat="59.445754194879" lon="17.992137353979">
        <ele>32.6</ele>
        <time>2019-08-31T11:17:12Z</time>
      </trkpt>
      <trkpt lat="59.445943542" lon="17.992087565493">
        <ele>32.4</ele>
        <time>2019-08-31T11:17:19Z</time>
      </trkpt>
      <trkpt lat="59.446124171945" lon="17.992057809748">
        <ele>32.8</ele>
        <time>2019-08-31T11:17:27Z</time>
      </trkpt>
      <trkpt lat="59.446320140767" lon="17.99206853858">
        <ele>32.4</ele>
        <time>2019-08-31T11:17:36Z</time>
      </trkpt>
      <trkpt lat="59.446434218426" lon="17.992103072008">
        <ele>31.2</ele>
        <time>2019-08-31T11:17:41Z</time>
      </trkpt>
      <trkpt lat="59.446498591418" lon="17.992106089492">
        <ele>30</ele>
        <time>2019-08-31T11:17:44Z</time>
      </trkpt>
      <trkpt lat="59.446633875284" lon="17.992051188047">
        <ele>29</ele>
        <time>2019-08-31T11:17:49Z</time>
      </trkpt>
      <trkpt lat="59.446880722239" lon="17.991907270824">
        <ele>28.8</ele>
        <time>2019-08-31T11:17:56Z</time>
      </trkpt>
      <trkpt lat="59.447060262537" lon="17.991763353601">
        <ele>29</ele>
        <time>2019-08-31T11:18:03Z</time>
      </trkpt>
      <trkpt lat="59.447232594401" lon="17.991596218515">
        <ele>28.8</ele>
        <time>2019-08-31T11:18:11Z</time>
      </trkpt>
      <trkpt lat="59.447399058935" lon="17.99146671816">
        <ele>28</ele>
        <time>2019-08-31T11:18:17Z</time>
      </trkpt>
      <trkpt lat="59.447560494329" lon="17.991364123704">
        <ele>26.8</ele>
        <time>2019-08-31T11:18:23Z</time>
      </trkpt>
      <trkpt lat="59.447704495371" lon="17.991122557346">
        <ele>27.2</ele>
        <time>2019-08-31T11:18:30Z</time>
      </trkpt>
      <trkpt lat="59.447750428183" lon="17.991010239886">
        <ele>27.8</ele>
        <time>2019-08-31T11:18:33Z</time>
      </trkpt>
      <trkpt lat="59.447851513897" lon="17.990687452917">
        <ele>28.6</ele>
        <time>2019-08-31T11:18:41Z</time>
      </trkpt>
      <trkpt lat="59.447932650689" lon="17.990344800845">
        <ele>28</ele>
        <time>2019-08-31T11:18:49Z</time>
      </trkpt>
      <trkpt lat="59.448013619843" lon="17.989988653914">
        <ele>28.6</ele>
        <time>2019-08-31T11:18:57Z</time>
      </trkpt>
      <trkpt lat="59.44802309139" lon="17.989885137449">
        <ele>28.8</ele>
        <time>2019-08-31T11:18:59Z</time>
      </trkpt>
      <trkpt lat="59.448026695607" lon="17.989842054483">
        <ele>29</ele>
        <time>2019-08-31T11:19:00Z</time>
      </trkpt>
      <trkpt lat="59.448099534318" lon="17.989505940293">
        <ele>28.2</ele>
        <time>2019-08-31T11:19:06Z</time>
      </trkpt>
      <trkpt lat="59.448114035005" lon="17.98945757673">
        <ele>28</ele>
        <time>2019-08-31T11:19:07Z</time>
      </trkpt>
      <trkpt lat="59.448171199563" lon="17.989299661734">
        <ele>26.8</ele>
        <time>2019-08-31T11:19:11Z</time>
      </trkpt>
      <trkpt lat="59.448216378004" lon="17.989230678697">
        <ele>25.6</ele>
        <time>2019-08-31T11:19:13Z</time>
      </trkpt>
      <trkpt lat="59.448273458743" lon="17.989116014305">
        <ele>24.4</ele>
        <time>2019-08-31T11:19:16Z</time>
      </trkpt>
      <trkpt lat="59.448378819226" lon="17.988972683815">
        <ele>23.4</ele>
        <time>2019-08-31T11:19:21Z</time>
      </trkpt>
      <trkpt lat="59.448415029034" lon="17.98892197332">
        <ele>23.2</ele>
        <time>2019-08-31T11:19:23Z</time>
      </trkpt>
      <trkpt lat="59.448467918823" lon="17.988871598101">
        <ele>22.8</ele>
        <time>2019-08-31T11:19:25Z</time>
      </trkpt>
      <trkpt lat="59.448493818894" lon="17.988795071354">
        <ele>22.2</ele>
        <time>2019-08-31T11:19:27Z</time>
      </trkpt>
      <trkpt lat="59.448647123845" lon="17.988565491113">
        <ele>22.4</ele>
        <time>2019-08-31T11:19:34Z</time>
      </trkpt>
      <trkpt lat="59.448792885086" lon="17.988316213407">
        <ele>23</ele>
        <time>2019-08-31T11:19:43Z</time>
      </trkpt>
      <trkpt lat="59.448970665185" lon="17.988220743566">
        <ele>22.8</ele>
        <time>2019-08-31T11:19:51Z</time>
      </trkpt>
      <trkpt lat="59.449018106739" lon="17.988185288129">
        <ele>22.4</ele>
        <time>2019-08-31T11:19:54Z</time>
      </trkpt>
      <trkpt lat="59.449052304891" lon="17.988192831839">
        <ele>22.2</ele>
        <time>2019-08-31T11:19:56Z</time>
      </trkpt>
      <trkpt lat="59.449264786056" lon="17.988105743898">
        <ele>22.2</ele>
        <time>2019-08-31T11:20:05Z</time>
      </trkpt>
      <trkpt lat="59.449459246136" lon="17.988014967921">
        <ele>21.6</ele>
        <time>2019-08-31T11:20:11Z</time>
      </trkpt>
      <trkpt lat="59.44962151972" lon="17.98782394442">
        <ele>21.4</ele>
        <time>2019-08-31T11:20:18Z</time>
      </trkpt>
      <trkpt lat="59.449766107495" lon="17.987634764937">
        <ele>21</ele>
        <time>2019-08-31T11:20:24Z</time>
      </trkpt>
      <trkpt lat="59.449906839596" lon="17.987361766454">
        <ele>20.6</ele>
        <time>2019-08-31T11:20:31Z</time>
      </trkpt>
      <trkpt lat="59.450024521472" lon="17.987080218433">
        <ele>20</ele>
        <time>2019-08-31T11:20:37Z</time>
      </trkpt>
      <trkpt lat="59.450093253052" lon="17.986943677282">
        <ele>18.8</ele>
        <time>2019-08-31T11:20:41Z</time>
      </trkpt>
      <trkpt lat="59.450190063997" lon="17.98681392547">
        <ele>17.6</ele>
        <time>2019-08-31T11:20:46Z</time>
      </trkpt>
      <trkpt lat="59.450363150232" lon="17.986556098226">
        <ele>18.4</ele>
        <time>2019-08-31T11:20:56Z</time>
      </trkpt>
      <trkpt lat="59.450529866223" lon="17.986353172427">
        <ele>18</ele>
        <time>2019-08-31T11:21:03Z</time>
      </trkpt>
      <trkpt lat="59.450685099011" lon="17.986140775081">
        <ele>17.2</ele>
        <time>2019-08-31T11:21:09Z</time>
      </trkpt>
      <trkpt lat="59.450762463948" lon="17.98603608515">
        <ele>16.6</ele>
        <time>2019-08-31T11:21:12Z</time>
      </trkpt>
      <trkpt lat="59.45080169124" lon="17.985937262549">
        <ele>16</ele>
        <time>2019-08-31T11:21:15Z</time>
      </trkpt>
      <trkpt lat="59.450910069207" lon="17.985611625734">
        <ele>16.4</ele>
        <time>2019-08-31T11:21:23Z</time>
      </trkpt>
      <trkpt lat="59.451009813817" lon="17.985305854022">
        <ele>17.6</ele>
        <time>2019-08-31T11:21:31Z</time>
      </trkpt>
      <trkpt lat="59.451104864563" lon="17.985052553004">
        <ele>17.4</ele>
        <time>2019-08-31T11:21:37Z</time>
      </trkpt>
      <trkpt lat="59.451189270296" lon="17.984684168499">
        <ele>18</ele>
        <time>2019-08-31T11:21:44Z</time>
      </trkpt>
      <trkpt lat="59.451274598038" lon="17.984370769258">
        <ele>17.6</ele>
        <time>2019-08-31T11:21:50Z</time>
      </trkpt>
      <trkpt lat="59.451323296877" lon="17.983997774708">
        <ele>16.4</ele>
        <time>2019-08-31T11:21:58Z</time>
      </trkpt>
      <trkpt lat="59.451410384818" lon="17.983674820101">
        <ele>16.8</ele>
        <time>2019-08-31T11:22:07Z</time>
      </trkpt>
      <trkpt lat="59.451531838549" lon="17.983330240192">
        <ele>17</ele>
        <time>2019-08-31T11:22:16Z</time>
      </trkpt>
      <trkpt lat="59.451606269821" lon="17.983128320221">
        <ele>16.6</ele>
        <time>2019-08-31T11:22:22Z</time>
      </trkpt>
      <trkpt lat="59.451713390503" lon="17.983015583666">
        <ele>16.8</ele>
        <time>2019-08-31T11:22:28Z</time>
      </trkpt>
      <trkpt lat="59.45190223471" lon="17.982886753863">
        <ele>16.6</ele>
        <time>2019-08-31T11:22:37Z</time>
      </trkpt>
      <trkpt lat="59.452115302608" lon="17.982794972058">
        <ele>16</ele>
        <time>2019-08-31T11:22:44Z</time>
      </trkpt>
      <trkpt lat="59.452262321134" lon="17.982569666586">
        <ele>17.6</ele>
        <time>2019-08-31T11:22:54Z</time>
      </trkpt>
      <trkpt lat="59.452271541224" lon="17.982535216977">
        <ele>17.8</ele>
        <time>2019-08-31T11:22:55Z</time>
      </trkpt>
      <trkpt lat="59.452360640821" lon="17.982447626122">
        <ele>18.6</ele>
        <time>2019-08-31T11:22:58Z</time>
      </trkpt>
      <trkpt lat="59.452440185052" lon="17.982234809681">
        <ele>19.6</ele>
        <time>2019-08-31T11:23:03Z</time>
      </trkpt>
      <trkpt lat="59.452420152311" lon="17.981882434605">
        <ele>20</ele>
        <time>2019-08-31T11:23:12Z</time>
      </trkpt>
      <trkpt lat="59.452402215045" lon="17.981788054411">
        <ele>20.2</ele>
        <time>2019-08-31T11:23:15Z</time>
      </trkpt>
      <trkpt lat="59.452388301091" lon="17.981675904589">
        <ele>20.6</ele>
        <time>2019-08-31T11:23:18Z</time>
      </trkpt>
      <trkpt lat="59.452362149563" lon="17.98145286223">
        <ele>21.8</ele>
        <time>2019-08-31T11:23:23Z</time>
      </trkpt>
      <trkpt lat="59.452314037457" lon="17.981084813001">
        <ele>22</ele>
        <time>2019-08-31T11:23:31Z</time>
      </trkpt>
      <trkpt lat="59.452197193771" lon="17.980754482322">
        <ele>21.2</ele>
        <time>2019-08-31T11:23:38Z</time>
      </trkpt>
      <trkpt lat="59.452125947621" lon="17.9805668954">
        <ele>22</ele>
        <time>2019-08-31T11:23:43Z</time>
      </trkpt>
      <trkpt lat="59.452071465271" lon="17.980468072799">
        <ele>23</ele>
        <time>2019-08-31T11:23:47Z</time>
      </trkpt>
      <trkpt lat="59.452020670957" lon="17.980396239916">
        <ele>24.2</ele>
        <time>2019-08-31T11:23:51Z</time>
      </trkpt>
      <trkpt lat="59.451960405096" lon="17.98031795297">
        <ele>25.2</ele>
        <time>2019-08-31T11:23:54Z</time>
      </trkpt>
      <trkpt lat="59.451814476217" lon="17.980044954487">
        <ele>25.6</ele>
        <time>2019-08-31T11:24:01Z</time>
      </trkpt>
      <trkpt lat="59.451769130138" lon="17.979999021675">
        <ele>26.2</ele>
        <time>2019-08-31T11:24:03Z</time>
      </trkpt>
      <trkpt lat="59.451669972261" lon="17.97985694847">
        <ele>27.4</ele>
        <time>2019-08-31T11:24:08Z</time>
      </trkpt>
      <trkpt lat="59.451571484936" lon="17.979524773773">
        <ele>27.8</ele>
        <time>2019-08-31T11:24:16Z</time>
      </trkpt>
      <trkpt lat="59.451520690622" lon="17.979171392869">
        <ele>28</ele>
        <time>2019-08-31T11:24:23Z</time>
      </trkpt>
      <trkpt lat="59.451510129428" lon="17.979014148425">
        <ele>28.4</ele>
        <time>2019-08-31T11:24:27Z</time>
      </trkpt>
      <trkpt lat="59.451514739473" lon="17.978977351884">
        <ele>28.4</ele>
        <time>2019-08-31T11:24:28Z</time>
      </trkpt>
      <trkpt lat="59.45152169645" lon="17.978953295831">
        <ele>28.4</ele>
        <time>2019-08-31T11:24:29Z</time>
      </trkpt>
      <trkpt lat="59.451533012015" lon="17.978926222294">
        <ele>28.6</ele>
        <time>2019-08-31T11:24:31Z</time>
      </trkpt>
      <trkpt lat="59.451538963164" lon="17.978915158186">
        <ele>29</ele>
        <time>2019-08-31T11:24:34Z</time>
      </trkpt>
      <trkpt lat="59.451578022818" lon="17.97893829223">
        <ele>29</ele>
        <time>2019-08-31T11:24:38Z</time>
      </trkpt>
      <trkpt lat="59.451605180174" lon="17.978917840394">
        <ele>29.6</ele>
        <time>2019-08-31T11:24:41Z</time>
      </trkpt>
      <trkpt lat="59.451630744969" lon="17.978910296684">
        <ele>29.8</ele>
        <time>2019-08-31T11:24:43Z</time>
      </trkpt>
      <trkpt lat="59.451643988371" lon="17.97889722092">
        <ele>29.8</ele>
        <time>2019-08-31T11:24:44Z</time>
      </trkpt>
      <trkpt lat="59.451676426324" lon="17.978885150984">
        <ele>30</ele>
        <time>2019-08-31T11:24:46Z</time>
      </trkpt>
      <trkpt lat="59.451709953924" lon="17.978869225374">
        <ele>30.4</ele>
        <time>2019-08-31T11:24:48Z</time>
      </trkpt>
      <trkpt lat="59.451726130991" lon="17.978849527909">
        <ele>30.6</ele>
        <time>2019-08-31T11:24:49Z</time>
      </trkpt>
      <trkpt lat="59.451769716871" lon="17.978833015566">
        <ele>31.6</ele>
        <time>2019-08-31T11:24:51Z</time>
      </trkpt>
      <trkpt lat="59.4518276358" lon="17.978801583441">
        <ele>32.8</ele>
        <time>2019-08-31T11:24:54Z</time>
      </trkpt>
      <trkpt lat="59.452016312369" lon="17.978742742503">
        <ele>33</ele>
        <time>2019-08-31T11:25:04Z</time>
      </trkpt>
      <trkpt lat="59.452200378893" lon="17.978721368658">
        <ele>32.8</ele>
        <time>2019-08-31T11:25:10Z</time>
      </trkpt>
      <trkpt lat="59.452312277258" lon="17.978708963446">
        <ele>32</ele>
        <time>2019-08-31T11:25:15Z</time>
      </trkpt>
      <trkpt lat="59.452357874794" lon="17.978680800262">
        <ele>31.6</ele>
        <time>2019-08-31T11:25:17Z</time>
      </trkpt>
      <trkpt lat="59.45254261187" lon="17.978576445607">
        <ele>32.4</ele>
        <time>2019-08-31T11:25:25Z</time>
      </trkpt>
      <trkpt lat="59.452658785004" lon="17.978512156434">
        <ele>32.8</ele>
        <time>2019-08-31T11:25:28Z</time>
      </trkpt>
      <trkpt lat="59.452846791021" lon="17.978368909763">
        <ele>33</ele>
        <time>2019-08-31T11:25:33Z</time>
      </trkpt>
      <trkpt lat="59.453026163681" lon="17.978179897918">
        <ele>33.6</ele>
        <time>2019-08-31T11:25:40Z</time>
      </trkpt>
      <trkpt lat="59.453037227789" lon="17.978150225992">
        <ele>33.8</ele>
        <time>2019-08-31T11:25:41Z</time>
      </trkpt>
      <trkpt lat="59.453171338189" lon="17.977969512228">
        <ele>34.8</ele>
        <time>2019-08-31T11:25:47Z</time>
      </trkpt>
      <trkpt lat="59.453340987845" lon="17.977758791262">
        <ele>35.4</ele>
        <time>2019-08-31T11:25:55Z</time>
      </trkpt>
      <trkpt lat="59.453469566191" lon="17.977498700905">
        <ele>35.4</ele>
        <time>2019-08-31T11:26:02Z</time>
      </trkpt>
      <trkpt lat="59.453674838922" lon="17.97742703566">
        <ele>35.6</ele>
        <time>2019-08-31T11:26:10Z</time>
      </trkpt>
      <trkpt lat="59.453871310658" lon="17.977313209458">
        <ele>34.8</ele>
        <time>2019-08-31T11:26:17Z</time>
      </trkpt>
      <trkpt lat="59.454045067445" lon="17.977179015239">
        <ele>33.6</ele>
        <time>2019-08-31T11:26:23Z</time>
      </trkpt>
      <trkpt lat="59.454097789596" lon="17.977100728293">
        <ele>32.4</ele>
        <time>2019-08-31T11:26:25Z</time>
      </trkpt>
      <trkpt lat="59.454202730984" lon="17.976917080864">
        <ele>31</ele>
        <time>2019-08-31T11:26:30Z</time>
      </trkpt>
      <trkpt lat="59.454302391775" lon="17.976719100386">
        <ele>29.8</ele>
        <time>2019-08-31T11:26:35Z</time>
      </trkpt>
      <trkpt lat="59.454441782772" lon="17.976421459117">
        <ele>28.8</ele>
        <time>2019-08-31T11:26:42Z</time>
      </trkpt>
      <trkpt lat="59.454614198455" lon="17.976234458928">
        <ele>28.6</ele>
        <time>2019-08-31T11:26:49Z</time>
      </trkpt>
      <trkpt lat="59.454731461236" lon="17.976088194773">
        <ele>27.4</ele>
        <time>2019-08-31T11:26:54Z</time>
      </trkpt>
      <trkpt lat="59.454828104543" lon="17.975890465752">
        <ele>26.2</ele>
        <time>2019-08-31T11:26:59Z</time>
      </trkpt>
      <trkpt lat="59.454880994332" lon="17.97574395014">
        <ele>25</ele>
        <time>2019-08-31T11:27:03Z</time>
      </trkpt>
      <trkpt lat="59.454919383434" lon="17.975606989894">
        <ele>23.8</ele>
        <time>2019-08-31T11:27:06Z</time>
      </trkpt>
      <trkpt lat="59.454970345386" lon="17.975476986625">
        <ele>22.2</ele>
        <time>2019-08-31T11:27:09Z</time>
      </trkpt>
      <trkpt lat="59.455020217691" lon="17.975362070776">
        <ele>21.2</ele>
        <time>2019-08-31T11:27:12Z</time>
      </trkpt>
      <trkpt lat="59.455074364765" lon="17.975232067507">
        <ele>20</ele>
        <time>2019-08-31T11:27:15Z</time>
      </trkpt>
      <trkpt lat="59.455173522642" lon="17.974927469261">
        <ele>18.8</ele>
        <time>2019-08-31T11:27:23Z</time>
      </trkpt>
      <trkpt lat="59.455239404376" lon="17.974572914891">
        <ele>18</ele>
        <time>2019-08-31T11:27:30Z</time>
      </trkpt>
      <trkpt lat="59.455263460429" lon="17.974411814773">
        <ele>17.8</ele>
        <time>2019-08-31T11:27:34Z</time>
      </trkpt>
      <trkpt lat="59.455312662182" lon="17.974059858792">
        <ele>17.2</ele>
        <time>2019-08-31T11:27:43Z</time>
      </trkpt>
      <trkpt lat="59.455396397363" lon="17.973675800134">
        <ele>17.2</ele>
        <time>2019-08-31T11:27:52Z</time>
      </trkpt>
      <trkpt lat="59.455485999874" lon="17.973332226053">
        <ele>17.6</ele>
        <time>2019-08-31T11:27:59Z</time>
      </trkpt>
      <trkpt lat="59.45552992103" lon="17.972959147684">
        <ele>17.2</ele>
        <time>2019-08-31T11:28:05Z</time>
      </trkpt>
      <trkpt lat="59.455471666825" lon="17.972632002127">
        <ele>17.2</ele>
        <time>2019-08-31T11:28:11Z</time>
      </trkpt>
      <trkpt lat="59.455391284404" lon="17.972279124137">
        <ele>17.2</ele>
        <time>2019-08-31T11:28:18Z</time>
      </trkpt>
      <trkpt lat="59.455305537567" lon="17.971934292771">
        <ele>17.8</ele>
        <time>2019-08-31T11:28:24Z</time>
      </trkpt>
      <trkpt lat="59.455261113497" lon="17.971750226247">
        <ele>17.8</ele>
        <time>2019-08-31T11:28:28Z</time>
      </trkpt>
      <trkpt lat="59.455087943443" lon="17.971594322907">
        <ele>18.6</ele>
        <time>2019-08-31T11:28:36Z</time>
      </trkpt>
      <trkpt lat="59.455068162159" lon="17.971572865243">
        <ele>18.8</ele>
        <time>2019-08-31T11:28:37Z</time>
      </trkpt>
      <trkpt lat="59.454944277677" lon="17.971478987963">
        <ele>20</ele>
        <time>2019-08-31T11:28:43Z</time>
      </trkpt>
      <trkpt lat="59.454891806983" lon="17.97137446567">
        <ele>21.4</ele>
        <time>2019-08-31T11:28:47Z</time>
      </trkpt>
      <trkpt lat="59.454877138658" lon="17.971315624732">
        <ele>22.4</ele>
        <time>2019-08-31T11:28:49Z</time>
      </trkpt>
      <trkpt lat="59.454839168651" lon="17.971222501823">
        <ele>23.6</ele>
        <time>2019-08-31T11:28:52Z</time>
      </trkpt>
      <trkpt lat="59.45478477012" lon="17.971124014498">
        <ele>24.8</ele>
        <time>2019-08-31T11:28:56Z</time>
      </trkpt>
      <trkpt lat="59.454753840909" lon="17.971098114427">
        <ele>26</ele>
        <time>2019-08-31T11:28:58Z</time>
      </trkpt>
      <trkpt lat="59.454709416839" lon="17.971051594882">
        <ele>27</ele>
        <time>2019-08-31T11:29:01Z</time>
      </trkpt>
      <trkpt lat="59.45460539746" lon="17.970943803648">
        <ele>28.2</ele>
        <time>2019-08-31T11:29:08Z</time>
      </trkpt>
      <trkpt lat="59.454495091656" lon="17.97088160995">
        <ele>29.4</ele>
        <time>2019-08-31T11:29:15Z</time>
      </trkpt>
      <trkpt lat="59.454386881327" lon="17.970890243307">
        <ele>31.2</ele>
        <time>2019-08-31T11:30:00Z</time>
      </trkpt>
      <trkpt lat="59.454321670145" lon="17.970798545321">
        <ele>31.6</ele>
        <time>2019-08-31T11:30:06Z</time>
      </trkpt>
      <trkpt lat="59.454288310183" lon="17.970728807913">
        <ele>32.4</ele>
        <time>2019-08-31T11:30:09Z</time>
      </trkpt>
      <trkpt lat="59.454239276068" lon="17.970594446056">
        <ele>33.4</ele>
        <time>2019-08-31T11:30:14Z</time>
      </trkpt>
      <trkpt lat="59.454197618025" lon="17.970427394789">
        <ele>34.4</ele>
        <time>2019-08-31T11:30:19Z</time>
      </trkpt>
      <trkpt lat="59.454181692415" lon="17.970307282162">
        <ele>35.6</ele>
        <time>2019-08-31T11:30:22Z</time>
      </trkpt>
      <trkpt lat="59.454173142877" lon="17.970177865626">
        <ele>36.8</ele>
        <time>2019-08-31T11:30:25Z</time>
      </trkpt>
      <trkpt lat="59.454162246407" lon="17.97006353651">
        <ele>37.8</ele>
        <time>2019-08-31T11:30:28Z</time>
      </trkpt>
      <trkpt lat="59.4541494221" lon="17.969935209621">
        <ele>38.8</ele>
        <time>2019-08-31T11:30:31Z</time>
      </trkpt>
      <trkpt lat="59.45411924726" lon="17.969707389579">
        <ele>40</ele>
        <time>2019-08-31T11:30:36Z</time>
      </trkpt>
      <trkpt lat="59.454094772112" lon="17.969581744898">
        <ele>41.4</ele>
        <time>2019-08-31T11:30:39Z</time>
      </trkpt>
      <trkpt lat="59.454067447118" lon="17.969504212323">
        <ele>42.4</ele>
        <time>2019-08-31T11:30:41Z</time>
      </trkpt>
      <trkpt lat="59.454034338613" lon="17.969428607585">
        <ele>43.4</ele>
        <time>2019-08-31T11:30:43Z</time>
      </trkpt>
      <trkpt lat="59.453872903219" lon="17.969224843596">
        <ele>43</ele>
        <time>2019-08-31T11:30:51Z</time>
      </trkpt>
      <trkpt lat="59.453811380073" lon="17.969180838621">
        <ele>42.4</ele>
        <time>2019-08-31T11:30:54Z</time>
      </trkpt>
      <trkpt lat="59.453780283224" lon="17.969131720687">
        <ele>41.8</ele>
        <time>2019-08-31T11:30:56Z</time>
      </trkpt>
      <trkpt lat="59.45371943063" lon="17.969076903061">
        <ele>41.2</ele>
        <time>2019-08-31T11:30:59Z</time>
      </trkpt>
      <trkpt lat="59.453570568086" lon="17.968956622796">
        <ele>40.2</ele>
        <time>2019-08-31T11:31:05Z</time>
      </trkpt>
      <trkpt lat="59.453492113502" lon="17.968896021659">
        <ele>39</ele>
        <time>2019-08-31T11:31:08Z</time>
      </trkpt>
      <trkpt lat="59.453424723026" lon="17.968854112159">
        <ele>37.8</ele>
        <time>2019-08-31T11:31:10Z</time>
      </trkpt>
      <trkpt lat="59.453353057781" lon="17.968843886241">
        <ele>36.4</ele>
        <time>2019-08-31T11:31:12Z</time>
      </trkpt>
      <trkpt lat="59.45329027735" lon="17.968848496286">
        <ele>35</ele>
        <time>2019-08-31T11:31:14Z</time>
      </trkpt>
      <trkpt lat="59.45324669147" lon="17.968841287852">
        <ele>34</ele>
        <time>2019-08-31T11:31:16Z</time>
      </trkpt>
      <trkpt lat="59.453149545249" lon="17.968790912633">
        <ele>32.8</ele>
        <time>2019-08-31T11:31:20Z</time>
      </trkpt>
      <trkpt lat="59.45302373293" lon="17.968782279276">
        <ele>31.4</ele>
        <time>2019-08-31T11:31:25Z</time>
      </trkpt>
      <trkpt lat="59.452969418218" lon="17.968790074443">
        <ele>31</ele>
        <time>2019-08-31T11:31:27Z</time>
      </trkpt>
      <trkpt lat="59.452848299763" lon="17.96886492481">
        <ele>30.4</ele>
        <time>2019-08-31T11:31:31Z</time>
      </trkpt>
      <trkpt lat="59.452691558233" lon="17.969047314954">
        <ele>29.4</ele>
        <time>2019-08-31T11:31:37Z</time>
      </trkpt>
      <trkpt lat="59.452509251908" lon="17.969208750348">
        <ele>28.8</ele>
        <time>2019-08-31T11:31:44Z</time>
      </trkpt>
      <trkpt lat="59.452412021868" lon="17.969292317891">
        <ele>28.4</ele>
        <time>2019-08-31T11:31:48Z</time>
      </trkpt>
      <trkpt lat="59.452234912321" lon="17.969456351674">
        <ele>27.4</ele>
        <time>2019-08-31T11:31:54Z</time>
      </trkpt>
      <trkpt lat="59.452200797988" lon="17.969470433266">
        <ele>27.2</ele>
        <time>2019-08-31T11:31:55Z</time>
      </trkpt>
      <trkpt lat="59.452056294032" lon="17.969478060795">
        <ele>26</ele>
        <time>2019-08-31T11:32:00Z</time>
      </trkpt>
      <trkpt lat="59.451871305499" lon="17.969504128504">
        <ele>25.2</ele>
        <time>2019-08-31T11:32:06Z</time>
      </trkpt>
      <trkpt lat="59.451691765201" lon="17.969597335232">
        <ele>25.2</ele>
        <time>2019-08-31T11:32:11Z</time>
      </trkpt>
      <trkpt lat="59.451664356388" lon="17.969610830091">
        <ele>25</ele>
        <time>2019-08-31T11:32:12Z</time>
      </trkpt>
      <trkpt lat="59.451476266552" lon="17.969622313294">
        <ele>24.6</ele>
        <time>2019-08-31T11:32:18Z</time>
      </trkpt>
      <trkpt lat="59.451300833385" lon="17.969509325282">
        <ele>24.2</ele>
        <time>2019-08-31T11:32:24Z</time>
      </trkpt>
      <trkpt lat="59.451260684084" lon="17.96951619844">
        <ele>24</ele>
        <time>2019-08-31T11:32:25Z</time>
      </trkpt>
      <trkpt lat="59.451170662478" lon="17.96953799138">
        <ele>23.8</ele>
        <time>2019-08-31T11:32:28Z</time>
      </trkpt>
    </trkseg>
  </trk>
</gpx>